Ternholm — OWIM2 — position and weather

sailwx.info

Track history (hours):
 
Tides and Currents Weather Stations Pressure Air Temp Water Temp Dewpoint Dewpoint Depression Visibility Wind Speed Wind Dir Waves Ship Positions

Ternholm

Last reported at 2014-Oct-31 12:26 UTC. Time now 2014-Oct-31 20:14 UTC.
Position N 57°32' E 017°52'.

Length 141 m; draft 8.5 m.

Type: Ship (hazmat cat C). MMSI: 219076000.

Date/timePositionNaut miles runAvg speedWind from/ knotsBaromVisibWave heightAir tempDewpointWater temp
2014-Oct-31 12:26N 57°32' E 017°52'1411.6
2014-Oct-31 11:13N 57°19' E 017°43'2111.7
2014-Oct-31 09:28N 56°59' E 017°32'1211.7
2014-Oct-31 08:26N 56°48' E 017°23'1111.8
2014-Oct-31 07:31N 56°38' E 017°15'8110.9
2014-Oct-31 00:05N 55°41' E 015°32'711.6
2014-Oct-30 23:29N 55°37' E 015°22'1111.7
2014-Oct-30 22:33N 55°32' E 015°04'1211.5
2014-Oct-30 21:31N 55°26' E 014°46'1111.3
2014-Oct-30 20:34N 55°19' E 014°32'1211.8
2014-Oct-30 19:34N 55°10' E 014°20'1211.8
2014-Oct-30 18:33N 55°00' E 014°07'6311.6
2014-Oct-30 13:06N 54°38' E 012°25'711.8
2014-Oct-30 12:30N 54°33' E 012°16'1010.5
2014-Oct-30 11:33N 54°25' E 012°05'1212.1
2014-Oct-30 10:33N 54°25' E 011°45'127 9.4
2014-Oct-29 21:07N 56°32' E 011°38'611.1
2014-Oct-29 20:33N 56°37' E 011°44'1111.1
2014-Oct-29 19:31N 56°48' E 011°50'1211.9
2014-Oct-29 18:33N 56°59' E 011°42'1211.8
2014-Oct-29 17:31N 57°10' E 011°35'1111.7
2014-Oct-29 16:33N 57°21' E 011°29'1010.4
2014-Oct-29 15:33N 57°31' E 011°33'1111.3
2014-Oct-29 14:33N 57°40' E 011°47'4 3.4
2014-Oct-29 13:31N 57°41' E 011°53'0 0.0
2014-Oct-29 12:31N 57°41' E 011°53'0 0.0
2014-Oct-29 11:31N 57°41' E 011°53'0 0.0
2014-Oct-29 10:31N 57°41' E 011°53'0 0.0
2014-Oct-29 09:31N 57°41' E 011°53'0 0.0
2014-Oct-29 08:31N 57°41' E 011°53'0 0.0
2014-Oct-29 07:31N 57°41' E 011°53'0 0.0
2014-Oct-29 06:31N 57°41' E 011°53'0 0.0
2014-Oct-29 05:31N 57°41' E 011°53'0 0.0
2014-Oct-29 04:31N 57°41' E 011°53'0 0.0
2014-Oct-29 03:31N 57°41' E 011°53'0 0.0
2014-Oct-29 02:31N 57°41' E 011°53'0 0.0
2014-Oct-29 01:31N 57°41' E 011°53'0 0.0
2014-Oct-29 00:31N 57°41' E 011°53'0 0.0
2014-Oct-28 23:31N 57°41' E 011°53'0 0.0
2014-Oct-28 22:31N 57°41' E 011°53'0 0.0
2014-Oct-28 21:31N 57°41' E 011°53'0 0.0
2014-Oct-28 20:31N 57°41' E 011°53'0 0.0
2014-Oct-28 19:31N 57°41' E 011°53'0 0.0
2014-Oct-28 18:31N 57°41' E 011°53'0 0.0
2014-Oct-28 17:34N 57°41' E 011°53'0 0.0
2014-Oct-28 16:33N 57°41' E 011°53'0 0.0
2014-Oct-28 15:33N 57°41' E 011°53'0 0.0
2014-Oct-28 14:33N 57°41' E 011°53'0 0.0
2014-Oct-28 13:33N 57°41' E 011°53'0 0.0
2014-Oct-28 12:33N 57°41' E 011°53'0 0.0
2014-Oct-28 11:33N 57°41' E 011°53'0 0.0
2014-Oct-28 10:33N 57°41' E 011°53'0 0.0
2014-Oct-28 09:33N 57°41' E 011°53'0 0.0
2014-Oct-28 08:33N 57°41' E 011°53'0 0.0
2014-Oct-28 07:33N 57°41' E 011°53'9 9.4
2014-Oct-28 06:34N 57°35' E 011°39'1211.5
2014-Oct-28 05:33N 57°24' E 011°42'1111.4
2014-Oct-28 04:33N 57°15' E 011°53'1111.2
2014-Oct-28 03:33N 57°04' E 012°02'1211.4
2014-Oct-28 02:32N 56°53' E 012°07'1111.5
2014-Oct-28 01:33N 56°42' E 012°11'1211.5
2014-Oct-28 00:31N 56°30' E 012°15'1111.6
2014-Oct-27 23:33N 56°19' E 012°19'1211.5
2014-Oct-27 22:33N 56°09' E 012°29'1111.4
2014-Oct-27 21:33N 56°00' E 012°41'1111.3
2014-Oct-27 20:33N 55°49' E 012°44'1111.2
2014-Oct-27 19:33N 55°38' E 012°42'1111.1
2014-Oct-27 18:33N 55°27' E 012°42'10 9.4
2014-Oct-27 17:33N 55°18' E 012°46'1111.2
2014-Oct-27 16:33N 55°15' E 013°05'1211.5
2014-Oct-27 15:32N 55°14' E 013°26'1111.5
2014-Oct-27 14:33N 55°14' E 013°46'1111.5
2014-Oct-27 13:33N 55°14' E 014°06'1010.3
2014-Oct-27 12:33N 55°18' E 014°22'1211.5
2014-Oct-27 11:33N 55°27' E 014°35'1111.3
2014-Oct-27 10:33N 55°33' E 014°52'1211.5
2014-Oct-27 09:33N 55°39' E 015°10'2311.4
2014-Oct-27 07:31N 55°50' E 015°46'1111.2
2014-Oct-27 06:31N 55°55' E 016°04'2010.4
2014-Oct-27 04:33N 56°06' E 016°35'4310.4
2014-Oct-27 00:25N 56°44' E 017°09'910.8
2014-Oct-26 23:33N 56°53' E 017°16'1110.9
2014-Oct-26 22:33N 57°03' E 017°22'1110.8
2014-Oct-26 21:33N 57°13' E 017°30'1110.8
2014-Oct-26 20:34N 57°23' E 017°37'1210.5
2014-Oct-26 19:25N 57°34' E 017°46'  
Track history (hours):
 
Tides and Currents Weather Stations Pressure Air Temp Water Temp Dewpoint Dewpoint Depression Visibility Wind Speed Wind Dir Waves Ship Positions

Ternholm

Last reported at 2014-Oct-31 12:26 UTC. Time now 2014-Oct-31 20:14 UTC.
Position N 57°32' E 017°52'.

Length 141 m; draft 8.5 m.

Type: Ship (hazmat cat C). MMSI: 219076000.

Date/timePositionNaut miles runAvg speedWind from/ knotsBaromVisibWave heightAir tempDewpointWater temp
2014-Oct-31 12:26N 57°32' E 017°52'1411.6
2014-Oct-31 11:13N 57°19' E 017°43'2111.7
2014-Oct-31 09:28N 56°59' E 017°32'1211.7
2014-Oct-31 08:26N 56°48' E 017°23'1111.8
2014-Oct-31 07:31N 56°38' E 017°15'8110.9
2014-Oct-31 00:05N 55°41' E 015°32'711.6
2014-Oct-30 23:29N 55°37' E 015°22'1111.7
2014-Oct-30 22:33N 55°32' E 015°04'1211.5
2014-Oct-30 21:31N 55°26' E 014°46'1111.3
2014-Oct-30 20:34N 55°19' E 014°32'1211.8
2014-Oct-30 19:34N 55°10' E 014°20'1211.8
2014-Oct-30 18:33N 55°00' E 014°07'6311.6
2014-Oct-30 13:06N 54°38' E 012°25'711.8
2014-Oct-30 12:30N 54°33' E 012°16'1010.5
2014-Oct-30 11:33N 54°25' E 012°05'1212.1
2014-Oct-30 10:33N 54°25' E 011°45'127 9.4
2014-Oct-29 21:07N 56°32' E 011°38'611.1
2014-Oct-29 20:33N 56°37' E 011°44'1111.1
2014-Oct-29 19:31N 56°48' E 011°50'1211.9
2014-Oct-29 18:33N 56°59' E 011°42'1211.8
2014-Oct-29 17:31N 57°10' E 011°35'1111.7
2014-Oct-29 16:33N 57°21' E 011°29'1010.4
2014-Oct-29 15:33N 57°31' E 011°33'1111.3
2014-Oct-29 14:33N 57°40' E 011°47'4 3.4
2014-Oct-29 13:31N 57°41' E 011°53'0 0.0
2014-Oct-29 12:31N 57°41' E 011°53'0 0.0
2014-Oct-29 11:31N 57°41' E 011°53'0 0.0
2014-Oct-29 10:31N 57°41' E 011°53'0 0.0
2014-Oct-29 09:31N 57°41' E 011°53'0 0.0
2014-Oct-29 08:31N 57°41' E 011°53'0 0.0
2014-Oct-29 07:31N 57°41' E 011°53'0 0.0
2014-Oct-29 06:31N 57°41' E 011°53'0 0.0
2014-Oct-29 05:31N 57°41' E 011°53'0 0.0
2014-Oct-29 04:31N 57°41' E 011°53'0 0.0
2014-Oct-29 03:31N 57°41' E 011°53'0 0.0
2014-Oct-29 02:31N 57°41' E 011°53'0 0.0
2014-Oct-29 01:31N 57°41' E 011°53'0 0.0
2014-Oct-29 00:31N 57°41' E 011°53'0 0.0
2014-Oct-28 23:31N 57°41' E 011°53'0 0.0
2014-Oct-28 22:31N 57°41' E 011°53'0 0.0
2014-Oct-28 21:31N 57°41' E 011°53'0 0.0
2014-Oct-28 20:31N 57°41' E 011°53'0 0.0
2014-Oct-28 19:31N 57°41' E 011°53'0 0.0
2014-Oct-28 18:31N 57°41' E 011°53'0 0.0
2014-Oct-28 17:34N 57°41' E 011°53'0 0.0
2014-Oct-28 16:33N 57°41' E 011°53'0 0.0
2014-Oct-28 15:33N 57°41' E 011°53'0 0.0
2014-Oct-28 14:33N 57°41' E 011°53'0 0.0
2014-Oct-28 13:33N 57°41' E 011°53'0 0.0
2014-Oct-28 12:33N 57°41' E 011°53'0 0.0
2014-Oct-28 11:33N 57°41' E 011°53'0 0.0
2014-Oct-28 10:33N 57°41' E 011°53'0 0.0
2014-Oct-28 09:33N 57°41' E 011°53'0 0.0
2014-Oct-28 08:33N 57°41' E 011°53'0 0.0
2014-Oct-28 07:33N 57°41' E 011°53'9 9.4
2014-Oct-28 06:34N 57°35' E 011°39'1211.5
2014-Oct-28 05:33N 57°24' E 011°42'1111.4
2014-Oct-28 04:33N 57°15' E 011°53'1111.2
2014-Oct-28 03:33N 57°04' E 012°02'1211.4
2014-Oct-28 02:32N 56°53' E 012°07'1111.5
2014-Oct-28 01:33N 56°42' E 012°11'1211.5
2014-Oct-28 00:31N 56°30' E 012°15'1111.6
2014-Oct-27 23:33N 56°19' E 012°19'1211.5
2014-Oct-27 22:33N 56°09' E 012°29'1111.4
2014-Oct-27 21:33N 56°00' E 012°41'1111.3
2014-Oct-27 20:33N 55°49' E 012°44'1111.2
2014-Oct-27 19:33N 55°38' E 012°42'1111.1
2014-Oct-27 18:33N 55°27' E 012°42'10 9.4
2014-Oct-27 17:33N 55°18' E 012°46'1111.2
2014-Oct-27 16:33N 55°15' E 013°05'1211.5
2014-Oct-27 15:32N 55°14' E 013°26'1111.5
2014-Oct-27 14:33N 55°14' E 013°46'1111.5
2014-Oct-27 13:33N 55°14' E 014°06'1010.3
2014-Oct-27 12:33N 55°18' E 014°22'1211.5
2014-Oct-27 11:33N 55°27' E 014°35'1111.3
2014-Oct-27 10:33N 55°33' E 014°52'1211.5
2014-Oct-27 09:33N 55°39' E 015°10'2311.4
2014-Oct-27 07:31N 55°50' E 015°46'1111.2
2014-Oct-27 06:31N 55°55' E 016°04'2010.4
2014-Oct-27 04:33N 56°06' E 016°35'4310.4
2014-Oct-27 00:25N 56°44' E 017°09'910.8
2014-Oct-26 23:33N 56°53' E 017°16'1110.9
2014-Oct-26 22:33N 57°03' E 017°22'1110.8
2014-Oct-26 21:33N 57°13' E 017°30'1110.8
2014-Oct-26 20:34N 57°23' E 017°37'1210.5
2014-Oct-26 19:25N 57°34' E 017°46'  

Dump ship's entire track history